Time;durP1;ratioP1;P1;durP2;ratioP2;P2;SDS_P1;SDS_P2;PMS_P1;PMS_P2;Temp;Humidity;BMP_temperature;BMP_pressure;BME280_temperature;BME280_humidity;BME280_pressure;Samples;Min_cycle;Max_cycle;Signal;HPM_P1;HPM_P2
2022/05/16 00:02:14;;;;;;;1.00;0.90;;;16.50;68.60;;;;;;5008289;28;21379;-82
2022/05/16 00:04:45;;;;;;;0.80;0.70;;;16.50;70.20;;;;;;5007492;28;20648;-84
2022/05/16 00:07:13;;;;;;;1.13;1.03;;;16.50;67.70;;;;;;5007670;28;20635;-83
2022/05/16 00:09:40;;;;;;;1.20;1.07;;;16.30;67.30;;;;;;5008489;28;21051;-83
2022/05/16 00:12:10;;;;;;;2.37;1.23;;;16.40;66.60;;;;;;5014029;28;20662;-83
2022/05/16 00:14:40;;;;;;;1.17;1.03;;;16.40;66.80;;;;;;5008333;28;21185;-83
2022/05/16 00:17:09;;;;;;;1.23;1.13;;;16.40;64.80;;;;;;5006440;28;20731;-84
2022/05/16 00:19:36;;;;;;;1.03;0.90;;;16.50;65.20;;;;;;5006698;28;20625;-82
2022/05/16 00:22:05;;;;;;;0.97;0.97;;;16.50;65.40;;;;;;5006478;28;20647;-84
2022/05/16 00:24:33;;;;;;;0.70;0.70;;;16.50;65.50;;;;;;5007660;28;20628;-83
2022/05/16 00:27:01;;;;;;;0.90;0.90;;;16.60;65.50;;;;;;5005840;28;21179;-84
2022/05/16 00:29:30;;;;;;;1.50;1.20;;;16.40;65.80;;;;;;5007288;28;20631;-82
2022/05/16 00:31:58;;;;;;;1.33;0.80;;;16.40;65.90;;;;;;5009998;28;20687;-83
2022/05/16 00:34:27;;;;;;;1.00;1.00;;;16.50;66.30;;;;;;5008255;28;20619;-82
2022/05/16 00:36:55;;;;;;;0.87;0.87;;;16.50;69.30;;;;;;5007642;28;20628;-83
2022/05/16 00:39:23;;;;;;;0.67;0.67;;;16.40;65.80;;;;;;5007860;28;20966;-83
2022/05/16 00:41:51;;;;;;;0.83;0.83;;;16.30;66.20;;;;;;4993142;28;20625;-83
2022/05/16 00:44:19;;;;;;;5.30;1.03;;;16.40;68.60;;;;;;5004358;28;20660;-83
2022/05/16 00:46:47;;;;;;;2.33;1.10;;;16.20;67.40;;;;;;5005820;28;20761;-83
2022/05/16 00:49:19;;;;;;;1.77;0.77;;;16.30;67.70;;;;;;5006711;28;21025;-83
2022/05/16 00:51:53;;;;;;;1.33;1.20;;;16.30;68.50;;;;;;5001210;28;20745;-84
2022/05/16 00:54:23;;;;;;;0.70;0.70;;;16.20;69.20;;;;;;4991272;28;20741;-83
2022/05/16 00:56:54;;;;;;;0.83;0.83;;;16.10;68.40;;;;;;4991937;28;20652;-83
2022/05/16 00:59:26;;;;;;;1.53;1.43;;;16.10;69.00;;;;;;5004924;28;20628;-82
2022/05/16 01:04:50;;;;;;;1.27;1.10;;;16.00;70.40;;;;;;5002572;28;20617;-83
2022/05/16 01:07:25;;;;;;;1.03;1.03;;;16.00;70.80;;;;;;5004357;28;20627;-83
2022/05/16 01:09:52;;;;;;;1.13;1.03;;;16.00;71.40;;;;;;5005086;28;20616;-82
2022/05/16 01:12:24;;;;;;;1.00;1.00;;;16.00;71.40;;;;;;5005106;28;21214;-84
2022/05/16 01:14:54;;;;;;;1.20;1.20;;;15.90;70.80;;;;;;5009133;28;20624;-83
2022/05/16 01:17:22;;;;;;;1.37;1.27;;;15.90;71.80;;;;;;5002797;28;20675;-82
2022/05/16 01:19:50;;;;;;;0.80;0.80;;;15.90;70.20;;;;;;5004274;28;21036;-83
2022/05/16 01:22:28;;;;;;;0.90;0.90;;;15.90;69.80;;;;;;5005223;28;20648;-83
2022/05/16 01:24:59;;;;;;;1.50;1.00;;;15.80;72.00;;;;;;5005058;28;20635;-83
2022/05/16 01:27:26;;;;;;;1.40;1.30;;;15.80;72.40;;;;;;5003738;28;20698;-83
2022/05/16 01:29:53;;;;;;;1.13;1.03;;;15.80;71.40;;;;;;5004392;28;20639;-82
2022/05/16 01:32:21;;;;;;;1.53;1.13;;;15.70;71.80;;;;;;5005198;28;20652;-83
2022/05/16 01:34:50;;;;;;;0.73;0.73;;;15.80;70.60;;;;;;5005253;28;20616;-83
2022/05/16 01:38:18;;;;;;;1.20;1.10;;;15.70;68.60;;;;;;5003880;28;21182;-83
2022/05/16 01:40:09;;;;;;;1.10;0.93;;;15.70;71.10;;;;;;5004206;28;20674;-82
2022/05/16 01:42:36;;;;;;;2.30;1.30;;;15.70;70.80;;;;;;5006675;28;20627;-82
2022/05/16 01:45:05;;;;;;;0.90;0.90;;;15.70;69.60;;;;;;5005868;28;20667;-83
2022/05/16 01:47:33;;;;;;;1.30;1.20;;;15.70;70.00;;;;;;5004814;28;20730;-83
2022/05/16 01:50:00;;;;;;;0.83;0.80;;;15.70;70.50;;;;;;5005526;28;20634;-82
2022/05/16 01:52:27;;;;;;;0.93;0.93;;;15.90;69.00;;;;;;5007552;28;20659;-83
2022/05/16 01:54:54;;;;;;;1.40;1.30;;;15.90;69.30;;;;;;5006641;28;21166;-82
2022/05/16 01:57:22;;;;;;;2.10;2.00;;;15.90;69.20;;;;;;5005370;28;21186;-82
2022/05/16 01:59:49;;;;;;;2.10;1.53;;;15.80;69.20;;;;;;5007687;28;20616;-82
2022/05/16 02:02:16;;;;;;;2.17;1.17;;;16.00;68.00;;;;;;5008043;28;20659;-81
2022/05/16 02:04:43;;;;;;;1.10;1.10;;;16.00;67.70;;;;;;5005973;28;22284;-82
2022/05/16 02:07:10;;;;;;;1.20;1.10;;;16.00;67.80;;;;;;5003939;28;20708;-83
2022/05/16 02:09:37;;;;;;;1.30;1.20;;;16.00;67.40;;;;;;5005851;28;21364;-82
2022/05/16 02:12:05;;;;;;;1.40;1.30;;;16.00;67.30;;;;;;5006570;28;20664;-82
2022/05/16 02:14:33;;;;;;;0.80;0.80;;;16.00;67.70;;;;;;5006606;28;20628;-83
2022/05/16 02:17:00;;;;;;;1.30;1.20;;;16.10;66.90;;;;;;5003252;28;20628;-83
2022/05/16 02:19:27;;;;;;;2.13;1.27;;;16.10;67.20;;;;;;5003114;28;21254;-83
2022/05/16 02:24:42;;;;;;;1.20;1.10;;;16.20;66.20;;;;;;5012001;28;20620;-82
2022/05/16 02:27:11;;;;;;;1.47;1.37;;;16.10;67.00;;;;;;5011315;28;20719;-83
2022/05/16 02:29:40;;;;;;;1.63;1.53;;;15.90;67.30;;;;;;5002756;28;20674;-82
2022/05/16 02:32:07;;;;;;;1.40;1.30;;;15.80;70.00;;;;;;5006806;28;20652;-83
2022/05/16 02:34:34;;;;;;;1.23;1.13;;;15.70;70.70;;;;;;5005944;28;20723;-82
2022/05/16 02:37:01;;;;;;;1.40;1.30;;;15.90;69.50;;;;;;5005500;28;20734;-82
2022/05/16 02:39:28;;;;;;;1.10;1.00;;;15.90;68.70;;;;;;5007074;28;20631;-82
2022/05/16 02:41:55;;;;;;;1.13;1.07;;;15.90;69.00;;;;;;5006080;28;20728;-82
2022/05/16 02:44:22;;;;;;;1.17;1.00;;;15.90;68.90;;;;;;5006567;28;20620;-82
2022/05/16 02:46:50;;;;;;;1.40;1.30;;;15.70;71.10;;;;;;5003299;28;20723;-82
2022/05/16 02:49:18;;;;;;;1.33;1.23;;;15.60;71.00;;;;;;5006061;28;20664;-83
2022/05/16 02:51:44;;;;;;;2.20;1.70;;;15.60;71.60;;;;;;5006647;28;20660;-83
2022/05/16 02:54:11;;;;;;;1.67;1.20;;;15.50;72.10;;;;;;5006693;28;20659;-84
2022/05/16 02:56:38;;;;;;;1.43;0.93;;;15.60;71.00;;;;;;5006495;28;20628;-82
2022/05/16 02:59:05;;;;;;;1.50;1.40;;;15.60;71.60;;;;;;5006441;28;20707;-82
2022/05/16 03:01:34;;;;;;;1.50;1.40;;;15.60;70.70;;;;;;5006275;28;20623;-83
2022/05/16 03:04:03;;;;;;;1.10;1.00;;;15.70;71.60;;;;;;5004851;28;20977;-83
2022/05/16 03:06:30;;;;;;;1.87;1.40;;;15.70;71.50;;;;;;5004363;28;20671;-82
2022/05/16 03:08:57;;;;;;;1.10;1.00;;;15.70;71.60;;;;;;5008172;28;20640;-82
2022/05/16 03:11:24;;;;;;;1.70;1.53;;;15.70;72.20;;;;;;5005761;28;20696;-82
2022/05/16 03:13:51;;;;;;;1.47;1.37;;;15.70;71.70;;;;;;5008083;28;20688;-82
2022/05/16 03:16:18;;;;;;;1.57;1.33;;;15.70;73.60;;;;;;5008849;28;21075;-83
2022/05/16 03:18:45;;;;;;;1.40;1.30;;;15.60;73.00;;;;;;5006587;28;20623;-83
2022/05/16 03:21:15;;;;;;;1.37;1.30;;;15.70;72.60;;;;;;5006286;28;20723;-83
2022/05/16 03:23:42;;;;;;;2.00;1.70;;;15.70;72.20;;;;;;5008148;28;20624;-82
2022/05/16 03:26:08;;;;;;;1.30;1.30;;;15.70;73.20;;;;;;5002686;28;20724;-82
2022/05/16 03:28:35;;;;;;;1.70;1.53;;;;;;;;;;5003660;28;20722;-82
2022/05/16 03:31:03;;;;;;;1.30;1.10;;;15.60;74.10;;;;;;5007022;28;20690;-83
2022/05/16 03:33:30;;;;;;;1.43;1.33;;;15.70;74.80;;;;;;5007482;28;21238;-83
2022/05/16 03:35:58;;;;;;;1.30;1.20;;;15.60;73.20;;;;;;5007220;28;20715;-83
2022/05/16 03:41:12;;;;;;;1.73;1.47;;;15.80;74.10;;;;;;5006174;28;21383;-82
2022/05/16 03:43:41;;;;;;;1.37;1.27;;;15.80;73.40;;;;;;5009224;28;20731;-83
2022/05/16 03:46:09;;;;;;;4.73;1.47;;;15.80;73.20;;;;;;5001539;28;20791;-82
2022/05/16 03:48:36;;;;;;;1.40;1.30;;;15.90;74.20;;;;;;4998744;28;20702;-83
2022/05/16 03:51:05;;;;;;;1.17;1.07;;;15.90;73.10;;;;;;5007702;28;20655;-83
2022/05/16 03:53:34;;;;;;;1.13;1.10;;;15.90;72.60;;;;;;5007001;28;20759;-82
2022/05/16 03:56:01;;;;;;;1.67;1.50;;;16.00;73.20;;;;;;5007127;28;20694;-83
2022/05/16 03:58:28;;;;;;;1.43;1.33;;;16.00;73.90;;;;;;5008993;28;20624;-82
2022/05/16 04:00:56;;;;;;;1.87;1.73;;;15.30;72.30;;;;;;5010178;28;20624;-83
2022/05/16 04:03:24;;;;;;;1.57;1.33;;;16.10;73.70;;;;;;5006112;28;20636;-83
2022/05/16 04:05:51;;;;;;;1.93;1.00;;;16.10;74.00;;;;;;5005309;28;20628;-82
2022/05/16 04:08:18;;;;;;;1.33;1.20;;;16.10;74.10;;;;;;5007936;28;20762;-83
2022/05/16 04:10:46;;;;;;;1.17;1.17;;;16.10;74.40;;;;;;5006950;28;20628;-82
2022/05/16 04:13:13;;;;;;;1.47;1.37;;;16.10;76.20;;;;;;5011256;28;21125;-83
2022/05/16 04:15:40;;;;;;;1.67;1.50;;;16.10;76.60;;;;;;5010166;28;20652;-83
2022/05/16 04:18:07;;;;;;;1.30;1.20;;;16.10;81.70;;;;;;5009769;28;20621;-82
2022/05/16 04:20:34;;;;;;;1.40;1.30;;;16.10;82.60;;;;;;5004340;28;20700;-82
2022/05/16 04:23:01;;;;;;;4.97;2.50;;;16.00;84.50;;;;;;5004341;28;20720;-82
2022/05/16 04:25:27;;;;;;;1.53;1.37;;;16.00;86.00;;;;;;5003207;28;21225;-82
2022/05/16 04:27:56;;;;;;;0.93;0.93;;;16.00;86.60;;;;;;5005757;28;20628;-83
2022/05/16 04:30:23;;;;;;;1.87;1.70;;;16.00;89.00;;;;;;5006194;28;20986;-82
2022/05/16 04:32:50;;;;;;;1.50;1.40;;;16.00;87.70;;;;;;5007507;28;20759;-83
2022/05/16 04:35:17;;;;;;;1.77;1.50;;;16.00;91.20;;;;;;5005428;28;20726;-82
2022/05/16 04:37:44;;;;;;;1.50;1.40;;;16.00;91.10;;;;;;5006218;28;20631;-83
2022/05/16 04:40:12;;;;;;;2.40;2.20;;;16.00;91.40;;;;;;5006488;28;20753;-82
2022/05/16 04:42:41;;;;;;;2.23;2.03;;;16.10;91.80;;;;;;5007248;28;20259;-82
2022/05/16 04:45:14;;;;;;;1.20;1.13;;;16.10;93.60;;;;;;5008485;28;20625;-83
2022/05/16 04:47:41;;;;;;;1.37;1.27;;;16.00;95.20;;;;;;5004048;28;20630;-83
2022/05/16 04:50:09;;;;;;;1.40;1.30;;;16.00;92.80;;;;;;5005998;28;20667;-82
2022/05/16 04:52:36;;;;;;;1.40;1.30;;;16.10;93.70;;;;;;5005545;28;20623;-84
2022/05/16 04:55:05;;;;;;;1.47;1.37;;;16.10;92.50;;;;;;5007827;28;20713;-82
2022/05/16 04:57:31;;;;;;;1.73;1.63;;;16.10;93.00;;;;;;5002705;28;21096;-83
2022/05/16 04:59:58;;;;;;;1.83;1.60;;;16.20;94.50;;;;;;5004408;28;20632;-82
2022/05/16 05:02:27;;;;;;;1.60;1.40;;;16.20;93.00;;;;;;5004358;28;20678;-83
2022/05/16 05:04:54;;;;;;;1.43;1.33;;;16.40;90.50;;;;;;5004561;28;20666;-83
2022/05/16 05:07:21;;;;;;;2.23;2.00;;;16.50;88.80;;;;;;5003521;28;20692;-82
2022/05/16 05:15:18;;;;;;;2.10;1.63;;;16.50;91.40;;;;;;5006425;28;20620;-83
2022/05/16 05:17:46;;;;;;;1.10;1.00;;;16.50;91.30;;;;;;5004233;28;20620;-83
2022/05/16 05:20:15;;;;;;;1.57;1.30;;;16.50;91.30;;;;;;5004778;28;20686;-82
2022/05/16 05:22:43;;;;;;;1.40;1.30;;;16.60;90.60;;;;;;5005405;28;20712;-82
2022/05/16 05:25:11;;;;;;;1.33;1.23;;;16.70;91.10;;;;;;5004322;28;21218;-83
2022/05/16 05:27:39;;;;;;;1.70;1.37;;;16.80;89.00;;;;;;5004695;28;20629;-83
2022/05/16 05:30:08;;;;;;;1.10;1.00;;;16.80;88.40;;;;;;5005740;28;20639;-83
2022/05/16 05:32:35;;;;;;;1.10;1.00;;;16.80;89.70;;;;;;5004412;28;21119;-83
2022/05/16 05:35:05;;;;;;;1.27;1.17;;;16.80;90.20;;;;;;5002894;28;20612;-82
2022/05/16 05:37:32;;;;;;;1.57;1.30;;;16.80;90.90;;;;;;5003602;28;20617;-83
2022/05/16 05:40:01;;;;;;;1.60;1.50;;;16.80;89.10;;;;;;5004970;28;20617;-82
2022/05/16 05:42:28;;;;;;;1.57;1.47;;;16.90;90.00;;;;;;5005021;28;20621;-83
2022/05/16 05:44:55;;;;;;;2.50;1.57;;;16.80;90.10;;;;;;5008368;28;20675;-83
2022/05/16 05:47:22;;;;;;;1.87;1.30;;;16.90;90.10;;;;;;5005496;28;20723;-82
2022/05/16 05:49:50;;;;;;;2.00;1.53;;;17.00;90.00;;;;;;5006299;28;20644;-83
2022/05/16 05:52:18;;;;;;;1.57;1.47;;;16.90;90.80;;;;;;5005850;28;21127;-83
2022/05/16 05:54:46;;;;;;;1.70;1.27;;;17.00;90.70;;;;;;5008083;28;21284;-82
2022/05/16 05:57:13;;;;;;;0.93;0.93;;;17.10;90.60;;;;;;5006793;28;21024;-83
2022/05/16 05:59:41;;;;;;;1.57;1.47;;;17.10;92.00;;;;;;5006346;28;20652;-82
2022/05/16 06:02:09;;;;;;;1.47;1.33;;;17.00;92.60;;;;;;5005293;28;21055;-82
2022/05/16 06:04:37;;;;;;;1.53;1.43;;;17.00;92.80;;;;;;5003696;28;20686;-83
2022/05/16 06:07:04;;;;;;;1.67;1.40;;;17.20;93.40;;;;;;5005971;28;20624;-82
2022/05/16 06:09:32;;;;;;;2.15;1.77;;;17.10;93.50;;;;;;5005977;28;20771;-82
2022/05/16 06:11:59;;;;;;;1.50;1.40;;;17.10;93.10;;;;;;5003498;28;20190;-82
2022/05/16 06:14:27;;;;;;;1.53;1.43;;;17.20;92.30;;;;;;5005520;28;21513;-82
2022/05/16 06:16:54;;;;;;;3.33;1.27;;;17.20;91.10;;;;;;5003284;28;20635;-83
2022/05/16 06:19:21;;;;;;;1.53;1.20;;;17.20;90.60;;;;;;5001978;28;20687;-83
2022/05/16 06:21:48;;;;;;;1.43;1.33;;;17.40;89.40;;;;;;5003020;28;20623;-82
2022/05/16 06:26:58;;;;;;;2.00;1.77;;;17.40;89.50;;;;;;5001244;28;20671;-82
2022/05/16 06:29:26;;;;;;;2.20;2.00;;;17.40;90.00;;;;;;5001974;28;20733;-82
2022/05/16 06:31:53;;;;;;;3.57;1.90;;;17.50;90.50;;;;;;5001621;28;20632;-83
2022/05/16 06:34:20;;;;;;;1.47;1.37;;;17.50;90.30;;;;;;5002987;28;20657;-81
2022/05/16 06:36:48;;;;;;;1.93;1.30;;;17.60;90.40;;;;;;5001106;28;20656;-81
2022/05/16 06:39:15;;;;;;;2.40;1.77;;;17.60;90.30;;;;;;5001872;28;20670;-82
2022/05/16 06:41:42;;;;;;;2.23;2.03;;;17.80;90.00;;;;;;5001862;28;20621;-83
2022/05/16 06:44:14;;;;;;;1.67;1.57;;;17.90;89.00;;;;;;5002569;28;20644;-84
2022/05/16 06:46:41;;;;;;;2.17;1.97;;;18.00;87.20;;;;;;5005589;28;20648;-82
2022/05/16 06:49:08;;;;;;;1.90;1.53;;;18.00;87.70;;;;;;5001551;28;20628;-83
2022/05/16 06:51:35;;;;;;;5.00;2.20;;;18.10;88.30;;;;;;5001508;28;20719;-82
2022/05/16 06:54:02;;;;;;;1.27;1.17;;;18.40;87.10;;;;;;5003120;28;20747;-82
2022/05/16 06:56:28;;;;;;;2.00;1.90;;;18.40;87.50;;;;;;4970109;28;21198;-83
2022/05/16 06:58:55;;;;;;;1.57;1.47;;;18.60;87.50;;;;;;4994890;28;20698;-82
2022/05/16 07:01:24;;;;;;;2.20;2.00;;;18.80;86.80;;;;;;5001166;28;20711;-82
2022/05/16 07:03:51;;;;;;;1.60;1.50;;;19.10;84.90;;;;;;5000190;28;20625;-82
2022/05/16 07:06:18;;;;;;;1.77;1.67;;;19.10;85.40;;;;;;4999936;28;20984;-83
2022/05/16 07:08:45;;;;;;;1.93;1.40;;;19.20;84.70;;;;;;5004633;28;20632;-83
2022/05/16 07:11:12;;;;;;;1.17;1.07;;;19.30;84.50;;;;;;5005066;28;21210;-82
2022/05/16 07:13:39;;;;;;;1.43;1.27;;;19.60;84.00;;;;;;5007093;28;20709;-82
2022/05/16 07:16:05;;;;;;;1.97;1.60;;;19.60;83.80;;;;;;5005981;28;20759;-82
2022/05/16 07:18:34;;;;;;;1.90;1.50;;;19.90;83.60;;;;;;5004858;28;20614;-81
2022/05/16 07:21:01;;;;;;;1.70;1.60;;;20.10;83.80;;;;;;5003673;28;20707;-83
2022/05/16 07:23:28;;;;;;;2.13;1.47;;;20.40;84.20;;;;;;5007018;28;20702;-82
2022/05/16 07:28:39;;;;;;;1.60;1.50;;;21.00;82.00;;;;;;5003736;28;20727;-82
2022/05/16 07:31:07;;;;;;;1.77;1.63;;;21.50;79.90;;;;;;5004443;28;20632;-83
2022/05/16 07:33:36;;;;;;;1.53;1.30;;;21.50;80.40;;;;;;5004478;28;20652;-83
2022/05/16 07:36:03;;;;;;;1.80;1.70;;;21.70;79.90;;;;;;5003634;28;20652;-82
2022/05/16 07:38:30;;;;;;;2.03;1.93;;;21.70;80.60;;;;;;5004335;28;20723;-82
2022/05/16 07:40:57;;;;;;;1.43;1.33;;;21.70;77.90;;;;;;5004295;28;20629;-82
2022/05/16 07:43:25;;;;;;;2.00;1.77;;;21.50;81.50;;;;;;5000567;28;20755;-82
2022/05/16 07:45:53;;;;;;;2.40;1.77;;;21.50;82.20;;;;;;5004170;28;20624;-82
2022/05/16 07:48:20;;;;;;;2.10;1.90;;;21.50;78.50;;;;;;4992344;28;20645;-83
2022/05/16 07:50:49;;;;;;;2.00;1.80;;;21.60;77.80;;;;;;5003672;28;20628;-82
2022/05/16 07:53:17;;;;;;;1.80;1.67;;;21.60;80.50;;;;;;5005894;28;20624;-83
2022/05/16 07:55:49;;;;;;;2.00;1.90;;;21.60;81.10;;;;;;5004521;28;21350;-83
2022/05/16 07:58:16;;;;;;;2.60;2.40;;;21.60;78.90;;;;;;5003703;28;20690;-83
2022/05/16 08:00:43;;;;;;;2.30;2.10;;;21.80;78.00;;;;;;5003686;28;20714;-83
2022/05/16 08:03:12;;;;;;;2.47;2.27;;;21.70;76.30;;;;;;5002594;28;20620;-82
2022/05/16 08:05:39;;;;;;;2.60;1.97;;;21.70;78.20;;;;;;5002242;28;20724;-83
2022/05/16 08:10:52;;;;;;;2.37;1.87;;;21.60;79.80;;;;;;5003398;28;20623;-84
2022/05/16 08:13:20;;;;;;;1.87;1.30;;;21.50;79.30;;;;;;5006811;28;20730;-83
2022/05/16 08:15:47;;;;;;;2.73;2.30;;;21.50;79.30;;;;;;5004707;28;20664;-82
2022/05/16 08:18:14;;;;;;;1.93;1.83;;;21.50;80.80;;;;;;5001081;28;20728;-83
2022/05/16 08:20:43;;;;;;;3.07;1.80;;;21.50;83.20;;;;;;5004064;28;20624;-83
2022/05/16 08:23:16;;;;;;;2.13;1.67;;;21.20;82.30;;;;;;5004174;28;21005;-83
2022/05/16 08:25:45;;;;;;;1.90;1.80;;;21.10;83.10;;;;;;5003351;28;20616;-82
2022/05/16 08:28:12;;;;;;;2.13;1.90;;;21.10;82.60;;;;;;5002646;28;20621;-83
2022/05/16 08:30:39;;;;;;;1.63;1.53;;;21.10;81.80;;;;;;5002805;28;20683;-84
2022/05/16 08:33:07;;;;;;;1.80;1.70;;;21.10;82.30;;;;;;5003640;28;20643;-82
2022/05/16 08:35:34;;;;;;;1.97;1.73;;;21.10;82.70;;;;;;5004586;28;21113;-83
2022/05/16 08:40:55;;;;;;;2.60;2.40;;;21.30;80.70;;;;;;5002561;28;20625;-82
2022/05/16 08:43:43;;;;;;;2.47;2.00;;;21.50;81.90;;;;;;5002350;28;20981;-82
2022/05/16 08:46:19;;;;;;;2.33;2.07;;;21.80;82.00;;;;;;5003754;28;20694;-82
2022/05/16 08:48:54;;;;;;;2.03;1.80;;;22.10;80.80;;;;;;5002858;28;20719;-83
2022/05/16 08:51:23;;;;;;;1.77;1.67;;;22.30;79.50;;;;;;5002842;28;20655;-83
2022/05/16 08:54:03;;;;;;;2.10;1.90;;;22.20;79.40;;;;;;5002091;28;20629;-83
2022/05/16 08:56:35;;;;;;;2.33;1.77;;;22.20;77.70;;;;;;5002764;28;20624;-83
2022/05/16 08:59:06;;;;;;;2.30;2.10;;;22.60;79.00;;;;;;5002420;28;20624;-83
2022/05/16 09:01:37;;;;;;;2.20;2.00;;;22.70;78.80;;;;;;5003296;28;21354;-83
2022/05/16 09:04:08;;;;;;;2.50;1.83;;;23.20;77.60;;;;;;5000832;28;21037;-82
2022/05/16 09:06:38;;;;;;;2.53;2.20;;;23.60;74.60;;;;;;5001568;28;20655;-83
2022/05/16 09:09:12;;;;;;;3.00;2.60;;;23.80;74.80;;;;;;5002047;28;20664;-82
2022/05/16 09:11:47;;;;;;;2.03;1.80;;;24.00;72.90;;;;;;4998254;28;20673;-83
2022/05/16 09:14:31;;;;;;;1.70;1.60;;;23.90;71.80;;;;;;5006289;28;20782;-82
2022/05/16 09:17:02;;;;;;;2.40;2.20;;;24.00;70.60;;;;;;5002260;28;20622;-82
2022/05/16 09:19:50;;;;;;;2.17;1.97;;;24.10;68.90;;;;;;5003623;28;20975;-82
2022/05/16 09:22:25;;;;;;;3.50;1.70;;;24.20;71.50;;;;;;5001653;28;21116;-82
2022/05/16 09:24:56;;;;;;;2.27;2.17;;;24.10;70.80;;;;;;5001148;28;20696;-82
2022/05/16 09:30:16;;;;;;;1.83;1.73;;;24.30;71.10;;;;;;5002369;28;20633;-82
2022/05/16 09:32:46;;;;;;;2.60;2.10;;;24.30;68.50;;;;;;5002648;28;20636;-83
2022/05/16 09:35:29;;;;;;;2.27;1.80;;;24.40;69.50;;;;;;5001034;28;20730;-83
2022/05/16 09:37:59;;;;;;;2.27;1.93;;;24.50;67.70;;;;;;5002630;28;21274;-83
2022/05/16 09:40:33;;;;;;;1.50;1.40;;;24.50;68.50;;;;;;5002201;28;20632;-82
2022/05/16 09:43:08;;;;;;;1.80;1.70;;;24.50;67.20;;;;;;5002657;28;20730;-83
2022/05/16 09:45:36;;;;;;;3.10;2.17;;;24.30;66.80;;;;;;5002727;28;20631;-84
2022/05/16 09:48:16;;;;;;;1.60;1.50;;;24.20;65.60;;;;;;5005311;28;20632;-83
2022/05/16 09:50:42;;;;;;;2.13;2.03;;;24.00;66.90;;;;;;5002257;28;20743;-83
2022/05/16 09:53:14;;;;;;;2.33;2.13;;;23.80;67.00;;;;;;5003090;28;20699;-83
2022/05/16 09:55:47;;;;;;;2.07;1.87;;;23.80;69.70;;;;;;5001473;28;20718;-83
2022/05/16 09:58:18;;;;;;;2.40;2.20;;;23.80;68.50;;;;;;5001357;28;20731;-84
2022/05/16 10:00:54;;;;;;;2.50;2.30;;;24.00;68.60;;;;;;5001391;28;20620;-83
2022/05/16 10:03:29;;;;;;;2.27;1.70;;;24.20;66.50;;;;;;4994875;28;20632;-83
2022/05/16 10:05:57;;;;;;;2.50;2.30;;;24.10;68.90;;;;;;5000999;28;20632;-83
2022/05/16 10:08:29;;;;;;;1.87;1.77;;;24.10;67.80;;;;;;5005636;28;21236;-83
2022/05/16 10:10:57;;;;;;;1.93;1.83;;;24.10;67.60;;;;;;5007807;28;21101;-83
2022/05/16 10:13:26;;;;;;;2.30;2.10;;;24.20;66.60;;;;;;5008418;28;20628;-83
2022/05/16 10:15:56;;;;;;;2.00;1.80;;;24.00;65.00;;;;;;5007700;28;20769;-84
2022/05/16 10:18:25;;;;;;;3.17;2.07;;;24.50;67.40;;;;;;5008091;28;21104;-83
2022/05/16 10:20:58;;;;;;;2.23;2.13;;;25.10;67.90;;;;;;5008546;28;20964;-84
2022/05/16 10:23:29;;;;;;;1.80;1.70;;;25.40;65.50;;;;;;5004656;28;20628;-82
2022/05/16 10:26:00;;;;;;;3.37;2.70;;;25.40;64.90;;;;;;5003802;28;20629;-84
2022/05/16 10:28:35;;;;;;;2.30;2.10;;;25.10;65.00;;;;;;5002646;28;20636;-83
2022/05/16 10:34:06;;;;;;;2.30;2.10;;;24.80;63.90;;;;;;5007528;28;20659;-84
2022/05/16 10:36:33;;;;;;;2.83;2.13;;;24.50;65.10;;;;;;5006950;28;20671;-82
2022/05/16 10:39:06;;;;;;;1.87;1.67;;;24.30;66.50;;;;;;5008299;28;20660;-83
2022/05/16 10:41:37;;;;;;;2.00;1.90;;;24.30;66.80;;;;;;4994613;28;20724;-84
2022/05/16 10:44:18;;;;;;;2.10;1.83;;;24.40;66.00;;;;;;4992371;28;20635;-81
2022/05/16 10:46:52;;;;;;;1.63;1.33;;;24.30;66.00;;;;;;4991865;28;21060;-84
2022/05/16 10:49:21;;;;;;;1.50;1.40;;;24.10;66.20;;;;;;4992733;28;20747;-83
2022/05/16 10:51:54;;;;;;;1.17;1.07;;;24.10;65.80;;;;;;4992533;28;20719;-83
2022/05/16 10:54:23;;;;;;;3.27;2.60;;;23.80;65.40;;;;;;4991681;28;20660;-84
2022/05/16 10:57:04;;;;;;;1.50;1.40;;;23.60;65.30;;;;;;5004460;28;21205;-84
2022/05/16 11:00:06;;;;;;;2.80;1.43;;;23.50;66.00;;;;;;5011342;28;20635;-83
2022/05/16 11:02:47;;;;;;;0.97;0.87;;;23.60;66.90;;;;;;5004241;28;20647;-83
2022/05/16 11:05:34;;;;;;;1.67;1.57;;;23.50;67.30;;;;;;5009681;28;20620;-82
2022/05/16 11:08:09;;;;;;;1.20;1.20;;;23.50;67.40;;;;;;5013051;28;20670;-83
2022/05/16 11:10:45;;;;;;;1.20;0.90;;;23.30;68.00;;;;;;5012444;28;20638;-83
2022/05/16 11:13:20;;;;;;;1.03;1.00;;;23.20;68.90;;;;;;5010790;28;20634;-82
2022/05/16 11:15:54;;;;;;;1.23;1.17;;;23.00;69.20;;;;;;5011514;28;20669;-83
2022/05/16 11:18:29;;;;;;;1.27;0.93;;;22.80;68.80;;;;;;5012011;28;20719;-82
2022/05/16 11:21:01;;;;;;;1.50;1.40;;;22.60;69.00;;;;;;5012480;28;21381;-84
2022/05/16 11:23:40;;;;;;;1.60;1.50;;;22.40;69.90;;;;;;5009220;28;20739;-83
2022/05/16 11:26:14;;;;;;;0.90;0.90;;;22.10;69.60;;;;;;5011817;28;20667;-83
2022/05/16 11:31:42;;;;;;;1.07;0.97;;;21.90;69.80;;;;;;5011904;28;21012;-84
2022/05/16 11:34:18;;;;;;;2.80;0.83;;;21.80;68.50;;;;;;5013644;28;20732;-85
2022/05/16 11:36:53;;;;;;;0.70;0.67;;;21.80;68.30;;;;;;5011816;28;20688;-83
2022/05/16 11:39:27;;;;;;;1.60;0.67;;;21.80;68.50;;;;;;5013272;28;20746;-84
2022/05/16 11:42:08;;;;;;;2.20;1.00;;;21.60;69.40;;;;;;4993692;28;20719;-83
2022/05/16 11:44:45;;;;;;;0.97;0.90;;;21.70;69.00;;;;;;4972257;28;20716;-83
2022/05/16 11:47:17;;;;;;;0.90;0.60;;;21.60;66.60;;;;;;4998883;28;20623;-83
2022/05/16 11:49:55;;;;;;;0.90;0.60;;;21.40;65.20;;;;;;4992266;28;20707;-83
2022/05/16 11:52:34;;;;;;;0.73;0.70;;;21.40;66.10;;;;;;4997979;28;20635;-83
2022/05/16 12:00:31;;;;;;;1.00;0.60;;;21.20;66.20;;;;;;5010691;28;20691;-83
2022/05/16 12:00:42;;;;;;;0.83;0.50;;;20.90;65.30;;;;;;4996904;28;20782;-83
2022/05/16 12:03:20;;;;;;;0.60;0.60;;;20.70;67.30;;;;;;5010048;28;20691;-83
2022/05/16 12:05:50;;;;;;;0.90;0.70;;;20.40;73.40;;;;;;5007721;28;21263;-84
2022/05/16 12:08:40;;;;;;;0.60;0.50;;;20.20;78.30;;;;;;5009912;28;20625;-83
2022/05/16 12:11:22;;;;;;;2.13;0.80;;;19.70;80.80;;;;;;5013353;28;20694;-84
2022/05/16 12:14:07;;;;;;;0.90;0.90;;;19.40;82.30;;;;;;5012461;28;21005;-83
2022/05/16 12:16:42;;;;;;;0.57;0.50;;;19.30;84.80;;;;;;5011605;28;20750;-84
2022/05/16 12:19:24;;;;;;;0.50;0.50;;;19.00;86.10;;;;;;5013886;28;20639;-83
2022/05/16 12:22:03;;;;;;;0.77;0.60;;;18.70;89.30;;;;;;5011065;28;21187;-84
2022/05/16 12:24:34;;;;;;;1.20;0.50;;;18.40;90.30;;;;;;5013498;28;20637;-84
2022/05/16 12:27:07;;;;;;;1.30;0.70;;;18.40;91.80;;;;;;5012162;28;21248;-84
2022/05/16 12:29:49;;;;;;;0.70;0.43;;;18.30;92.60;;;;;;5013375;28;20670;-83
2022/05/16 12:32:48;;;;;;;1.27;0.90;;;18.40;92.50;;;;;;5012763;28;20758;-84
2022/05/16 12:35:36;;;;;;;0.67;0.60;;;18.20;92.90;;;;;;4998983;28;21217;-84
2022/05/16 12:38:04;;;;;;;4.00;0.80;;;18.10;95.00;;;;;;5011416;28;21170;-84
2022/05/16 12:40:45;;;;;;;0.60;0.60;;;18.10;96.30;;;;;;4998201;28;20629;-84
2022/05/16 12:43:27;;;;;;;0.80;0.60;;;18.30;98.10;;;;;;4995665;28;20682;-83
2022/05/16 12:46:16;;;;;;;0.40;0.30;;;18.00;98.70;;;;;;5011507;28;20694;-85
2022/05/16 12:48:53;;;;;;;1.80;0.60;;;18.10;99.60;;;;;;5011029;28;20624;-83
2022/05/16 12:51:46;;;;;;;0.60;0.60;;;17.90;99.90;;;;;;5011878;28;20624;-84
2022/05/16 12:54:57;;;;;;;0.60;0.60;;;18.00;99.90;;;;;;5006707;28;20629;-83
2022/05/16 12:57:48;;;;;;;0.93;0.67;;;18.20;99.90;;;;;;5010180;28;20632;-84
2022/05/16 13:00:20;;;;;;;0.63;0.63;;;18.70;99.90;;;;;;5012362;28;20650;-84
2022/05/16 13:03:00;;;;;;;0.67;0.67;;;19.40;99.90;;;;;;5011008;28;20636;-84
2022/05/16 13:05:36;;;;;;;0.70;0.70;;;19.80;98.50;;;;;;5002646;28;20633;-85
2022/05/16 13:08:16;;;;;;;0.73;0.73;;;20.40;99.00;;;;;;5009306;28;20682;-83
2022/05/16 13:10:52;;;;;;;1.03;0.87;;;20.60;94.00;;;;;;5011258;28;20659;-83
2022/05/16 13:13:37;;;;;;;1.73;0.70;;;21.50;95.90;;;;;;4975411;28;20692;-83
2022/05/16 13:16:12;;;;;;;0.73;0.73;;;21.90;91.40;;;;;;5009969;28;20789;-83
2022/05/16 13:18:44;;;;;;;0.73;0.73;;;21.90;92.50;;;;;;5011073;28;20921;-84
2022/05/16 13:21:14;;;;;;;0.70;0.70;;;22.10;93.20;;;;;;5010473;28;20627;-84
2022/05/16 13:23:43;;;;;;;0.70;0.70;;;22.00;92.40;;;;;;5010079;28;20671;-84
2022/05/16 13:31:42;;;;;;;1.90;1.27;;;21.50;90.90;;;;;;5009250;28;20649;-83
2022/05/16 13:34:11;;;;;;;0.97;0.97;;;21.10;91.80;;;;;;5009087;28;21211;-83
2022/05/16 13:36:39;;;;;;;2.47;1.00;;;21.20;92.70;;;;;;5008111;28;20771;-83
2022/05/16 13:39:13;;;;;;;1.30;1.20;;;21.50;93.20;;;;;;5009232;28;21086;-83
2022/05/16 13:41:40;;;;;;;1.23;1.13;;;21.90;91.60;;;;;;4996804;28;21039;-83
2022/05/16 13:44:11;;;;;;;1.17;1.10;;;22.40;91.70;;;;;;5009060;28;20714;-84
2022/05/16 13:46:38;;;;;;;2.73;1.40;;;22.90;89.70;;;;;;5008659;28;20624;-84
2022/05/16 13:49:08;;;;;;;1.30;1.20;;;23.30;89.70;;;;;;5009160;28;20608;-84